createdAt,value
2019-05-05T00:01:58.334Z,15.50
2019-05-05T00:04:32.122Z,14.43
2019-05-05T00:07:01.807Z,17.33
2019-05-05T00:09:31.343Z,18.33
2019-05-05T00:12:10.942Z,16.67
2019-05-05T00:14:57.066Z,12.83
2019-05-05T00:17:28.152Z,15.10
2019-05-05T00:19:58.015Z,15.10
2019-05-05T00:22:29.085Z,8.03
2019-05-05T00:24:58.487Z,11.80
2019-05-05T00:27:29.416Z,8.10
2019-05-05T00:29:58.817Z,10.23
2019-05-05T00:32:28.254Z,11.23
2019-05-05T00:34:57.723Z,14.30
2019-05-05T00:37:27.199Z,14.87
2019-05-05T00:39:56.597Z,13.10
2019-05-05T00:42:26.047Z,9.47
2019-05-05T00:44:55.607Z,14.73
2019-05-05T00:47:26.696Z,12.57
2019-05-05T00:49:56.413Z,14.40
2019-05-05T00:52:25.937Z,11.30
2019-05-05T00:54:55.715Z,20.03
2019-05-05T00:57:25.151Z,12.53
2019-05-05T00:59:54.644Z,23.07
2019-05-05T01:02:40.487Z,23.00
2019-05-05T01:05:11.874Z,14.17
2019-05-05T01:07:41.376Z,13.27
2019-05-05T01:10:11.089Z,13.00
2019-05-05T01:12:40.524Z,17.63
2019-05-05T01:15:10.088Z,16.93
2019-05-05T01:17:39.522Z,14.87
2019-05-05T01:20:09.456Z,14.43
2019-05-05T01:22:38.956Z,16.37
2019-05-05T01:25:10.442Z,16.93
2019-05-05T01:27:40.648Z,16.37
2019-05-05T01:30:17.019Z,20.77
2019-05-05T01:32:50.808Z,16.97
2019-05-05T01:35:20.271Z,18.00
2019-05-05T01:37:57.595Z,22.03
2019-05-05T01:40:29.272Z,16.87
2019-05-05T01:42:59.241Z,17.00
2019-05-05T01:45:28.895Z,19.50
2019-05-05T01:47:58.465Z,15.37
2019-05-05T01:50:27.866Z,22.10
2019-05-05T01:52:57.300Z,21.03
2019-05-05T01:55:26.938Z,19.33
2019-05-05T01:57:56.768Z,19.40
2019-05-05T02:00:26.263Z,23.73
2019-05-05T02:02:55.776Z,26.97
2019-05-05T02:05:25.178Z,33.80
2019-05-05T02:07:55.354Z,37.23
2019-05-05T02:10:25.464Z,36.67
2019-05-05T02:12:55.242Z,38.03
2019-05-05T02:15:25.087Z,30.70
2019-05-05T02:17:55.121Z,34.83
2019-05-05T02:20:45.375Z,40.63
2019-05-05T02:23:16.636Z,32.63
2019-05-05T02:25:46.674Z,29.27
2019-05-05T02:28:17.928Z,26.53
2019-05-05T02:30:54.826Z,29.97
2019-05-05T02:33:26.160Z,31.33
2019-05-05T02:36:06.938Z,31.53
2019-05-05T02:38:36.463Z,29.40
2019-05-05T02:41:07.057Z,28.07
2019-05-05T02:43:38.210Z,34.13
2019-05-05T02:46:25.306Z,28.60
2019-05-05T02:49:00.052Z,36.50
2019-05-05T02:51:31.790Z,38.20
2019-05-05T02:54:04.542Z,32.17
2019-05-05T02:56:39.800Z,29.30
2019-05-05T02:59:11.621Z,35.13
2019-05-05T03:01:54.696Z,24.83
2019-05-05T03:04:36.100Z,27.70
2019-05-05T03:07:08.177Z,29.27
2019-05-05T03:09:38.935Z,29.73
2019-05-05T03:12:11.188Z,31.63
2019-05-05T03:14:44.493Z,23.07
2019-05-05T03:17:15.905Z,23.87
2019-05-05T03:19:45.604Z,32.13
2019-05-05T03:22:15.913Z,28.47
2019-05-05T03:24:46.927Z,28.33
2019-05-05T03:27:16.509Z,39.53
2019-05-05T03:29:46.915Z,31.23
2019-05-05T03:32:16.611Z,41.10
2019-05-05T03:34:46.418Z,35.90
2019-05-05T03:37:16.478Z,28.17
2019-05-05T03:39:48.496Z,29.90
2019-05-05T03:42:29.595Z,32.47
2019-05-05T03:45:01.009Z,29.30
2019-05-05T03:47:33.555Z,37.93
2019-05-05T03:50:04.377Z,30.67
2019-05-05T03:52:34.748Z,29.03
2019-05-05T03:55:09.953Z,31.27
2019-05-05T03:57:39.663Z,38.20
2019-05-05T04:00:11.561Z,32.07
2019-05-05T04:02:44.529Z,28.10
2019-05-05T04:05:16.135Z,32.60
2019-05-05T04:07:46.406Z,30.03
2019-05-05T04:10:17.619Z,31.47
2019-05-05T04:12:48.089Z,29.17
2019-05-05T04:15:17.628Z,26.77
2019-05-05T04:18:00.660Z,35.70
2019-05-05T04:20:33.599Z,28.57
2019-05-05T04:23:03.733Z,24.23
2019-05-05T04:25:35.000Z,24.47
2019-05-05T04:28:04.701Z,27.83
2019-05-05T04:30:34.169Z,35.33
2019-05-05T04:33:04.603Z,29.30
2019-05-05T04:35:34.258Z,31.30
2019-05-05T04:38:04.709Z,32.43
2019-05-05T04:40:34.656Z,30.57
2019-05-05T04:43:04.121Z,35.90
2019-05-05T04:45:35.434Z,40.67
2019-05-05T04:48:14.047Z,34.03
2019-05-05T04:50:45.092Z,30.00
2019-05-05T04:53:16.237Z,37.57
2019-05-05T04:55:45.625Z,27.80
2019-05-05T04:58:15.062Z,27.27
2019-05-05T05:00:44.527Z,28.97
2019-05-05T05:03:18.308Z,23.93
2019-05-05T05:05:54.994Z,19.20
2019-05-05T05:08:24.817Z,17.83
2019-05-05T05:10:54.406Z,25.60
2019-05-05T05:13:24.607Z,21.50
2019-05-05T05:15:54.130Z,23.73
2019-05-05T05:18:25.216Z,21.20
2019-05-05T05:20:55.026Z,21.30
2019-05-05T05:23:24.815Z,22.47
2019-05-05T05:25:54.597Z,27.73
2019-05-05T05:28:24.034Z,21.63
2019-05-05T05:30:54.531Z,16.33
2019-05-05T05:33:24.071Z,18.97
2019-05-05T05:35:54.671Z,23.07
2019-05-05T05:38:24.951Z,21.30
2019-05-05T05:40:56.091Z,23.93
2019-05-05T05:43:37.552Z,27.50
2019-05-05T05:46:13.519Z,23.43
2019-05-05T05:48:47.218Z,28.97
2019-05-05T05:51:19.512Z,26.30
2019-05-05T05:53:49.134Z,24.50
2019-05-05T05:56:18.575Z,21.80
2019-05-05T05:58:48.051Z,19.67
2019-05-05T06:01:17.558Z,25.17
2019-05-05T06:03:46.946Z,22.10
2019-05-05T06:06:17.931Z,18.43
2019-05-05T06:08:47.382Z,23.70
2019-05-05T06:11:16.878Z,22.17
2019-05-05T06:13:47.663Z,17.90
2019-05-05T06:16:17.173Z,20.20
2019-05-05T06:18:46.604Z,22.97
2019-05-05T06:21:16.195Z,24.37
2019-05-05T06:23:45.826Z,25.70
2019-05-05T06:26:15.547Z,21.60
2019-05-05T06:28:45.249Z,20.53
2019-05-05T06:31:15.582Z,19.07
2019-05-05T06:33:45.576Z,23.73
2019-05-05T06:36:14.976Z,22.70
2019-05-05T06:38:44.409Z,18.83
2019-05-05T06:41:18.666Z,17.33
2019-05-05T06:43:49.783Z,19.63
2019-05-05T06:46:24.332Z,18.27
2019-05-05T06:48:53.973Z,15.57
2019-05-05T06:51:24.547Z,18.47
2019-05-05T06:53:54.148Z,13.17
2019-05-05T06:56:23.869Z,15.57
2019-05-05T06:58:54.120Z,14.83
2019-05-05T07:01:25.354Z,16.27
2019-05-05T07:03:54.794Z,17.97
2019-05-05T07:06:24.199Z,15.63
2019-05-05T07:08:54.568Z,14.50
2019-05-05T07:11:24.309Z,15.50
2019-05-05T07:13:53.855Z,15.03
2019-05-05T07:16:24.329Z,14.20
2019-05-05T07:18:54.773Z,13.57
2019-05-05T07:21:24.177Z,13.77
2019-05-05T07:23:54.109Z,14.33
2019-05-05T07:26:23.862Z,14.07
2019-05-05T07:28:54.127Z,12.67
2019-05-05T07:31:23.986Z,15.47
2019-05-05T07:33:54.463Z,21.73
2019-05-05T07:36:35.198Z,17.70
2019-05-05T07:39:07.090Z,15.90
2019-05-05T07:41:36.499Z,17.20
2019-05-05T07:44:06.031Z,16.00
2019-05-05T07:46:35.441Z,16.53
2019-05-05T07:49:05.116Z,14.47
2019-05-05T07:51:34.600Z,18.73
2019-05-05T07:54:04.259Z,14.73
2019-05-05T07:56:34.373Z,11.97
2019-05-05T07:59:04.140Z,11.13
2019-05-05T08:01:33.963Z,9.83
2019-05-05T08:04:04.458Z,16.10
2019-05-05T08:06:35.630Z,11.43
2019-05-05T08:09:06.803Z,9.83
2019-05-05T08:11:36.244Z,12.90
2019-05-05T08:14:05.663Z,11.13
2019-05-05T08:16:39.452Z,10.53
2019-05-05T08:19:27.281Z,16.80
2019-05-05T08:21:56.746Z,13.20
2019-05-05T08:24:30.483Z,9.50
2019-05-05T08:27:14.434Z,12.07
2019-05-05T08:29:48.472Z,13.20
2019-05-05T08:32:28.466Z,13.73
2019-05-05T08:35:00.758Z,15.00
2019-05-05T08:37:29.190Z,13.57
2019-05-05T08:39:58.597Z,12.73
2019-05-05T08:42:28.063Z,13.73
2019-05-05T08:44:57.527Z,11.53
2019-05-05T08:47:28.617Z,10.37
2019-05-05T08:49:58.043Z,11.17
2019-05-05T08:52:27.558Z,11.63
2019-05-05T08:54:57.028Z,11.43
2019-05-05T08:57:28.224Z,9.60
2019-05-05T08:59:57.618Z,14.57
2019-05-05T09:02:27.144Z,16.40
2019-05-05T09:04:56.551Z,16.07
2019-05-05T09:07:25.991Z,15.80
2019-05-05T09:09:55.408Z,13.10
2019-05-05T09:12:24.905Z,16.37
2019-05-05T09:14:54.328Z,16.10
2019-05-05T09:17:24.456Z,20.57
2019-05-05T09:19:55.094Z,19.10
2019-05-05T09:22:24.701Z,18.10
2019-05-05T09:24:56.913Z,18.53
2019-05-05T09:27:34.727Z,18.80
2019-05-05T09:30:05.661Z,16.80
2019-05-05T09:32:35.112Z,13.60
2019-05-05T09:35:06.508Z,13.50
2019-05-05T09:37:36.036Z,14.67
2019-05-05T09:40:06.919Z,15.40
2019-05-05T09:42:36.426Z,14.77
2019-05-05T09:45:07.776Z,13.73
2019-05-05T09:47:37.611Z,17.00
2019-05-05T09:50:07.796Z,15.30
2019-05-05T09:52:37.258Z,12.67
2019-05-05T09:55:07.991Z,9.57
2019-05-05T09:57:37.436Z,11.20
2019-05-05T10:00:10.076Z,13.50
2019-05-05T10:02:41.051Z,16.23
2019-05-05T10:05:10.958Z,12.00
2019-05-05T10:07:40.402Z,17.00
2019-05-05T10:10:10.478Z,17.17
2019-05-05T10:12:39.951Z,15.27
2019-05-05T10:15:09.529Z,13.37
2019-05-05T10:17:38.970Z,13.77
2019-05-05T10:20:10.277Z,12.00
2019-05-05T10:22:39.799Z,15.27
2019-05-05T10:25:27.931Z,15.00
2019-05-05T10:27:57.965Z,18.60
2019-05-05T10:30:27.439Z,16.23
2019-05-05T10:32:57.018Z,15.57
2019-05-05T10:35:26.676Z,15.83
2019-05-05T10:37:56.088Z,13.53
2019-05-05T10:40:33.898Z,15.73
2019-05-05T10:43:04.503Z,19.17
2019-05-05T10:45:35.767Z,15.53
2019-05-05T10:48:05.416Z,17.57
2019-05-05T10:50:34.944Z,18.53
2019-05-05T10:53:04.794Z,16.87
2019-05-05T10:55:34.875Z,13.70
2019-05-05T10:58:04.488Z,12.47
2019-05-05T11:00:44.444Z,12.07
2019-05-05T11:03:15.130Z,12.77
2019-05-05T11:05:45.392Z,13.23
2019-05-05T11:08:15.339Z,10.93
2019-05-05T11:10:45.341Z,14.30
2019-05-05T11:13:15.095Z,10.87
2019-05-05T11:15:44.687Z,14.33
2019-05-05T11:18:15.112Z,12.30
2019-05-05T11:20:45.211Z,11.63
2019-05-05T11:23:15.376Z,16.83
2019-05-05T11:25:45.060Z,13.60
2019-05-05T11:28:14.490Z,13.77
2019-05-05T11:30:47.164Z,11.13
2019-05-05T11:33:36.466Z,10.53
2019-05-05T11:36:07.280Z,11.83
2019-05-05T11:38:36.716Z,11.23
2019-05-05T11:41:06.331Z,11.83
2019-05-05T11:43:35.838Z,12.67
2019-05-05T11:46:05.342Z,11.50
2019-05-05T11:48:34.801Z,13.37
2019-05-05T11:51:05.832Z,13.83
2019-05-05T11:53:35.307Z,12.40
2019-05-05T11:56:04.879Z,13.57
2019-05-05T11:58:34.316Z,12.60
2019-05-05T12:01:04.039Z,12.67
2019-05-05T12:03:34.111Z,12.57
2019-05-05T12:06:04.142Z,11.30
2019-05-05T12:08:34.707Z,9.57
2019-05-05T12:11:06.307Z,13.63
2019-05-05T12:13:35.860Z,15.20
2019-05-05T12:16:06.229Z,12.90
2019-05-05T12:18:35.749Z,12.97
2019-05-05T12:21:05.524Z,11.57
2019-05-05T12:23:35.998Z,10.90
2019-05-05T12:26:24.397Z,11.00
2019-05-05T12:28:55.671Z,10.00
2019-05-05T12:31:35.719Z,9.10
2019-05-05T12:34:06.468Z,12.07
2019-05-05T12:36:36.087Z,10.20
2019-05-05T12:39:08.906Z,11.17
2019-05-05T12:41:39.383Z,12.23
2019-05-05T12:44:10.557Z,13.10
2019-05-05T12:46:41.677Z,10.03
2019-05-05T12:49:13.841Z,7.27
2019-05-05T12:51:43.678Z,12.23
2019-05-05T12:54:14.718Z,12.93
2019-05-05T12:56:45.866Z,10.17
2019-05-05T12:59:16.938Z,8.97
2019-05-05T13:01:46.403Z,8.10
2019-05-05T13:04:15.962Z,6.73
2019-05-05T13:06:45.353Z,10.97
2019-05-05T13:09:16.105Z,11.90
2019-05-05T13:11:45.674Z,9.13
2019-05-05T13:14:16.756Z,5.43
2019-05-05T13:16:52.397Z,5.60
2019-05-05T13:19:24.064Z,5.77
2019-05-05T13:21:57.464Z,8.30
2019-05-05T13:24:46.724Z,10.53
2019-05-05T13:27:19.864Z,6.13
2019-05-05T13:29:49.575Z,10.50
2019-05-05T13:32:19.090Z,9.30
2019-05-05T13:34:48.515Z,6.77
2019-05-05T13:37:17.964Z,5.60
2019-05-05T13:39:47.438Z,7.57
2019-05-05T13:42:16.882Z,6.53
2019-05-05T13:44:56.915Z,6.77
2019-05-05T13:47:26.482Z,7.77
2019-05-05T13:49:57.540Z,5.17
2019-05-05T13:52:26.978Z,5.20
2019-05-05T13:54:56.401Z,5.97
2019-05-05T13:57:25.818Z,4.60
2019-05-05T13:59:55.330Z,7.33
2019-05-05T14:02:24.770Z,7.60
2019-05-05T14:04:54.308Z,5.47
2019-05-05T14:07:24.108Z,8.00
2019-05-05T14:09:54.951Z,6.90
2019-05-05T14:12:24.557Z,9.83
2019-05-05T14:14:54.626Z,7.83
2019-05-05T14:17:24.879Z,9.97
2019-05-05T14:20:02.477Z,11.33
2019-05-05T14:22:25.423Z,9.47
2019-05-05T14:25:00.434Z,10.57
2019-05-05T14:27:31.672Z,9.07
2019-05-05T14:30:11.978Z,10.10
2019-05-05T14:32:43.841Z,10.33
2019-05-05T14:35:17.946Z,10.80
2019-05-05T14:37:54.939Z,9.07
2019-05-05T14:40:24.381Z,7.60
2019-05-05T14:42:54.027Z,7.43
2019-05-05T14:45:23.706Z,6.73
2019-05-05T14:47:53.647Z,5.43
2019-05-05T14:50:24.183Z,8.00
2019-05-05T14:52:53.750Z,3.23
2019-05-05T14:55:25.444Z,7.40
2019-05-05T14:57:54.486Z,7.13
2019-05-05T15:00:25.346Z,8.27
2019-05-05T15:02:55.461Z,10.93
2019-05-05T15:05:35.687Z,11.67
2019-05-05T15:08:24.183Z,9.37
2019-05-05T15:11:00.869Z,13.00
2019-05-05T15:13:30.326Z,14.13
2019-05-05T15:15:59.866Z,13.17
2019-05-05T15:18:29.316Z,12.00
2019-05-05T15:20:58.836Z,8.87
2019-05-05T15:23:28.461Z,9.67
2019-05-05T15:25:57.973Z,11.60
2019-05-05T15:28:27.576Z,13.37
2019-05-05T15:30:57.020Z,11.60
2019-05-05T15:33:26.598Z,11.67
2019-05-05T15:35:56.127Z,11.33
2019-05-05T15:38:26.103Z,16.03
2019-05-05T15:40:55.901Z,18.47
2019-05-05T15:43:25.428Z,8.73
2019-05-05T15:45:54.854Z,9.30
2019-05-05T15:48:24.282Z,7.30
2019-05-05T15:50:54.638Z,8.60
2019-05-05T15:53:24.555Z,10.67
2019-05-05T15:55:54.197Z,12.83
2019-05-05T15:58:23.737Z,9.37
2019-05-05T16:01:06.642Z,9.40
2019-05-05T16:03:36.113Z,14.83
2019-05-05T16:06:05.535Z,15.17
2019-05-05T16:08:35.007Z,16.43
2019-05-05T16:11:04.491Z,12.33
2019-05-05T16:13:35.362Z,16.37
2019-05-05T16:16:06.789Z,9.80
2019-05-05T16:18:37.965Z,14.20
2019-05-05T16:21:18.311Z,17.30
2019-05-05T16:23:55.180Z,12.13
2019-05-05T16:26:26.216Z,12.43
2019-05-05T16:28:55.641Z,14.07
2019-05-05T16:31:27.578Z,10.50
2019-05-05T16:33:56.421Z,12.33
2019-05-05T16:36:27.305Z,8.53
2019-05-05T16:38:56.745Z,14.33
2019-05-05T16:41:26.320Z,12.43
2019-05-05T16:43:55.964Z,9.30
2019-05-05T16:46:25.544Z,13.77
2019-05-05T16:48:54.999Z,11.40
2019-05-05T16:51:29.078Z,9.40
2019-05-05T16:54:00.175Z,13.67
2019-05-05T16:56:30.054Z,16.37
2019-05-05T16:58:59.540Z,9.83
2019-05-05T17:01:29.129Z,12.60
2019-05-05T17:06:41.291Z,12.67
2019-05-05T17:09:10.733Z,13.37
2019-05-05T17:11:40.334Z,11.77
2019-05-05T17:14:11.449Z,8.70
2019-05-05T17:16:48.616Z,10.20
2019-05-05T17:19:33.767Z,10.13
2019-05-05T17:22:07.877Z,10.13
2019-05-05T17:24:38.888Z,8.47
2019-05-05T17:27:08.466Z,11.63
2019-05-05T17:29:37.930Z,10.43
2019-05-05T17:32:07.582Z,12.20
2019-05-05T17:34:37.006Z,8.97
2019-05-05T17:37:06.517Z,8.23
2019-05-05T17:39:37.603Z,10.30
2019-05-05T17:42:15.007Z,11.43
2019-05-05T17:44:46.123Z,8.57
2019-05-05T17:47:24.447Z,9.80
2019-05-05T17:49:58.516Z,11.93
2019-05-05T17:52:46.027Z,14.70
2019-05-05T17:58:16.009Z,10.20
2019-05-05T18:00:48.095Z,9.60
2019-05-05T18:03:17.545Z,9.13
2019-05-05T18:06:06.036Z,8.07
2019-05-05T18:08:37.154Z,9.43
2019-05-05T18:14:06.844Z,11.73
2019-05-05T18:16:36.249Z,12.60
2019-05-05T18:19:05.916Z,13.47
2019-05-05T18:21:36.832Z,12.57
2019-05-05T18:24:07.028Z,14.77
2019-05-05T18:26:36.728Z,13.10
2019-05-05T18:29:06.188Z,9.17
2019-05-05T18:31:35.882Z,6.90
2019-05-05T18:34:06.859Z,11.20
2019-05-05T18:36:36.290Z,8.50
2019-05-05T18:39:08.303Z,9.70
2019-05-05T18:41:58.593Z,8.00
2019-05-05T18:44:33.502Z,8.77
2019-05-05T18:47:14.395Z,11.37
2019-05-05T18:49:42.451Z,13.97
2019-05-05T18:52:13.792Z,11.23
2019-05-05T18:54:43.614Z,10.77
2019-05-05T18:57:13.259Z,11.60
2019-05-05T18:59:44.717Z,11.07
2019-05-05T19:02:31.856Z,12.57
2019-05-05T19:05:04.749Z,8.07
2019-05-05T19:07:38.369Z,11.60
2019-05-05T19:10:08.408Z,12.40
2019-05-05T19:12:38.192Z,17.30
2019-05-05T19:15:07.878Z,14.30
2019-05-05T19:17:37.313Z,12.33
2019-05-05T19:20:09.448Z,13.43
2019-05-05T19:22:38.882Z,13.90
2019-05-05T19:25:17.344Z,14.80
2019-05-05T19:27:47.094Z,13.57
2019-05-05T19:30:18.056Z,16.07
2019-05-05T19:32:47.535Z,13.20
2019-05-05T19:35:16.977Z,12.27
2019-05-05T19:37:46.469Z,15.30
2019-05-05T19:40:16.049Z,12.10
2019-05-05T19:42:46.294Z,10.17
2019-05-05T19:45:15.955Z,16.27
2019-05-05T19:47:45.467Z,15.47
2019-05-05T19:50:18.287Z,12.77
2019-05-05T19:52:47.842Z,14.17
2019-05-05T19:55:17.347Z,16.57
2019-05-05T19:57:46.957Z,9.87
2019-05-05T20:00:18.109Z,14.13
2019-05-05T20:03:00.424Z,14.17
2019-05-05T20:05:18.957Z,13.20
2019-05-05T20:07:49.317Z,10.43
2019-05-05T20:10:19.002Z,13.33
2019-05-05T20:12:48.502Z,12.47
2019-05-05T20:15:25.612Z,13.10
2019-05-05T20:17:55.244Z,15.13
2019-05-05T20:20:24.676Z,9.83
2019-05-05T20:22:54.775Z,16.63
2019-05-05T20:25:24.495Z,12.03
2019-05-05T20:27:55.979Z,10.50
2019-05-05T20:30:26.642Z,13.10
2019-05-05T20:32:57.790Z,10.17
2019-05-05T20:35:29.048Z,9.60
2019-05-05T20:38:06.113Z,13.97
2019-05-05T20:40:37.194Z,9.37
2019-05-05T20:43:06.630Z,12.17
2019-05-05T20:45:36.398Z,11.00
2019-05-05T20:48:06.358Z,11.60
2019-05-05T20:50:35.924Z,12.20
2019-05-05T20:53:05.463Z,13.63
2019-05-05T20:55:34.883Z,14.97
2019-05-05T20:58:04.779Z,14.60
2019-05-05T21:00:34.895Z,15.90
2019-05-05T21:03:05.000Z,11.23
2019-05-05T21:05:34.873Z,14.73
2019-05-05T21:08:06.150Z,10.60
2019-05-05T21:10:35.592Z,14.93
2019-05-05T21:13:06.562Z,11.53
2019-05-05T21:15:36.169Z,11.87
2019-05-05T21:18:05.681Z,9.70
2019-05-05T21:20:35.119Z,12.50
2019-05-05T21:23:14.338Z,11.80
2019-05-05T21:25:54.484Z,11.30
2019-05-05T21:28:24.195Z,12.07
2019-05-05T21:30:54.147Z,16.77
2019-05-05T21:33:24.067Z,15.17
2019-05-05T21:35:55.106Z,10.87
2019-05-05T21:38:24.722Z,10.23
2019-05-05T21:40:54.168Z,10.27
2019-05-05T21:43:25.138Z,10.80
2019-05-05T21:45:54.602Z,13.67
2019-05-05T21:48:25.853Z,9.43
2019-05-05T21:50:56.941Z,12.20
2019-05-05T21:53:44.273Z,8.77
2019-05-05T21:56:34.078Z,9.43
2019-05-05T21:59:04.157Z,12.20
2019-05-05T22:01:39.759Z,12.63
2019-05-05T22:04:06.045Z,10.67
2019-05-05T22:06:35.566Z,12.77
2019-05-05T22:09:06.910Z,13.47
2019-05-05T22:11:36.340Z,12.77
2019-05-05T22:14:05.906Z,11.27
2019-05-05T22:16:35.573Z,15.03
2019-05-05T22:19:06.207Z,11.47
2019-05-05T22:21:43.735Z,14.50
2019-05-05T22:24:15.923Z,9.27
2019-05-05T22:26:45.738Z,16.07
2019-05-05T22:29:18.780Z,10.63
2019-05-05T22:31:48.937Z,10.47
2019-05-05T22:34:18.524Z,13.43
2019-05-05T22:36:48.037Z,13.07
2019-05-05T22:39:17.678Z,13.83
2019-05-05T22:41:47.172Z,12.23
2019-05-05T22:44:16.817Z,13.40
2019-05-05T22:46:46.579Z,15.60
2019-05-05T22:49:16.138Z,17.73
2019-05-05T22:51:45.662Z,14.67
2019-05-05T22:54:16.746Z,15.17
2019-05-05T22:56:46.249Z,11.90
2019-05-05T22:59:15.845Z,9.57
2019-05-05T23:01:45.440Z,12.63
2019-05-05T23:04:31.843Z,11.53
2019-05-05T23:07:03.868Z,12.10
2019-05-05T23:09:33.415Z,12.03
2019-05-05T23:12:04.208Z,12.20
2019-05-05T23:14:34.373Z,13.83
2019-05-05T23:17:22.067Z,12.63
2019-05-05T23:19:59.179Z,13.17
2019-05-05T23:22:48.448Z,9.20
2019-05-05T23:25:25.723Z,15.30
2019-05-05T23:27:56.845Z,10.93
2019-05-05T23:30:38.569Z,9.30
2019-05-05T23:32:57.542Z,11.47
2019-05-05T23:35:26.935Z,14.07
2019-05-05T23:37:56.379Z,7.87
2019-05-05T23:40:27.394Z,10.43
2019-05-05T23:42:56.831Z,11.63
2019-05-05T23:45:26.231Z,10.57
2019-05-05T23:47:55.802Z,10.20
2019-05-05T23:50:25.304Z,12.13
2019-05-05T23:52:54.893Z,11.13
2019-05-05T23:55:24.577Z,10.97
2019-05-05T23:57:54.908Z,11.60
